Scroll down
FLIGHT INFORMATION
PMDG Flight Operations

PFO203

At Arrival Gate

KLAX
 KSAN
DATE: 2019-02-03
GATE: 150
GATE DEPARTURE: 17:17
TAKEOFF: 17:36
DATE: 2019-02-03
GATE: 45
LANDING: 18:04
GATE ARRIVAL: 18:07
FLIGHT DATA
Crew: 
Speed: 
355 kts
Altitude: 
11,008 ft
Stage Length: 
94.9 nm
Block Time: 
0.6 hrs
Flight Time: 
0.5 hrs
Fuel Used: 
12,457 lb
Cleared Route: KLAX SLI DANAH OCN CARIF MZB KSAN
TRACK DATA
50,000 ft 1,000 kts
AIRCRAFT INFO AND CUMULATIVE STATS
Aircraft Type: 
B744
Registration: 
SELCAL: 
MSN/LN: 
0 / 2
Total Flights: 
10
Total Block Time: 
42.4 hrs
Total Flight Time: 
40 hrs
Total Fuel Time: 
874,272 lb
DATALINK LOG | Newest first | Current as of: 2021-05-09 16:06:06
LABEL SEQUENCE CONTENT Dn/Up
QD074318:07 30.2▼ Dn
QC045518:04▼ Dn
GA5705GATE 45▲ Up
GR5551KSAN 18:00 MAAS 00 YP/UM 00/00 WCHR/S/C 00/00/00 DIPL/VIP NO▼ Dn
465502/OV KSAN/330/10 /TM 1755 /FL080 /TP B744 /SK SCT /TA 12 /WV 237/13 /TB LGT /RM NONE▼ Dn
2U4934KSAN 031651Z 17004KT 10SM FEW020 BKN031 BKN050 14/09 A2998 RMK AO2 SLP150 T01440094▲ Up
2S4934KSAN▼ Dn
QB360217:36▼ Dn
QA175217:17 43.4▼ Dn
2U1438KLAX 031653Z 18007KT 10SM SCT013 BKN039 OVC046 13/11 A2992 RMK AO2 RAE34 SLP131 P0002 T01280106 $▲ Up
2U1438KSAN 031651Z 17004KT 10SM FEW020 BKN031 BKN050 14/09 A2998 RMK AO2 SLP150 T01440094▲ Up
2S1438KLAX KSAN▼ Dn
A71024CLEARANCE AVAIL WITHIN 0:25 OF EDT▲ Up
B30833KLAX KSAN PFO203 N744GE ▼ Dn
A70609CLEARANCE AVAIL WITHIN 0:25 OF EDT▲ Up
B30510KLAX KSAN PFO203 N744GE ▼ Dn
Q00455[LINK ACK]▲ Up
Q00356[LINK TEST]▼ Dn


AIRCRAFT HISTORY
FLIGHT DATE FLIGHT NO. ORIGIN DESTINATION CLEARED ROUTE BLOCK TIME FLIGHT TIME FUEL USED PILOT
2019-07-06PFO707KJFK KPHL KJFK CRI FESTI RW27L0.6 hrs0.4 hrs11,250 lbKyle Weber
2019-06-20PFO619KLAX KJFK KLAX DLREY ENNEY NAANC HAYNK PEVEE HOLTZ OSHNN CAHIL ZOOMM SEBBY PLAYY ARCUS YELAH WYZEE BEALE BAWER LARVE EKR BFF ONL FOD KG75M DAFLU BROKK BEWEL JHW HOXIE DMACK STENT MAGIO LVZ JENNO HARTY STW LENDY LGA AROKE RW04L4.8 hrs4.6 hrs97,388 lbKyle Weber
2019-05-26PFO525EGLL KLAX EGLL D256G D261K WODNB D101H CPT TNT RODOL KOLID BILVO TUPEM REMSI GOMUP 6020N 6430N 6540N 6550N CLAVY MUSVA 6180N 5890N YDN ISN BPI FFU FRNZY MLF BERYL NORRA OVETO BLD HAKMN SHTNR SMASH SALYY GLESN ANJLL CAANN BOYEL CRCUS MERCE RW24R10.9 hrs10.7 hrs237,136 lbKyle Weber
2019-02-20PFO219KLAX EGLL KLAX DOCKR WEILR SHAEF PEVEE HOLTZ DOTSS WIILD BLCKD CSTWY CNERY BLH INW LAA HLC OVR ALO DLL TVC NOTAP YOW MIILS JOOPY 4950N 5240N 5430N 5420N DOGAL BEXET BAKUR STU NUMPO OKESI BEDEK NIGIT TOMMO CI27L RW27L9.9 hrs9.7 hrs229,317 lbKyle Weber
2019-02-10PFO210KSAN KLAX KSAN MELDY PEBLE SLI KLAX0.6 hrs0.4 hrs12,018 lbKyle Weber
2019-02-03PFO203KLAX KSAN KLAX SLI DANAH OCN CARIF MZB KSAN0.6 hrs0.5 hrs12,457 lbKyle Weber
2019-01-23PFO123KIAD KLAX KIAD TIICE WHYUU BUNZZ RAMAY BENSH GEQUE HACKS SUMET VLADY EMPTY MECAN OKK ADELL CID JORDY ONL BFF EKR CHESZ PROMT VERKN GARDD NOOTN LAKRR ZZYZX HAKMN SHTNR SMASH SALYY GLESN ANJLL CAANN BOYEL CRCUS KLAX5.2 hrs5 hrs98,661 lb-SUSPENDED-
2019-01-22PFO121KORF KIAD KORF HPW THHMP JROBB BNTLY MEEGO CAVLR KASDY BARIN STAYO TRING MIXNN KIAD1 hrs0.7 hrs22,222 lb-SUSPENDED-
2018-11-11PFO1111KIAD KORF 0.8 hrs0.6 hrs12,228 lbKyle Weber
2018-03-29PFO28EGLL KIAD CPT3F CPT UL9 KENET UN14 OKTAD Q60 LANON UL18 LIPGO DOGAL NATF RIKAL N438A TOPPS BAF HYPER77.9 hrs7.4 hrs141,594 lb-SUSPENDED-